sensor_id;sensor_type;location;lat;lon;timestamp;pressure;altitude;pressure_sealevel;temperature;humidity
5500;BME280;2772;42.700;23.304;2023-02-10T00:00:15;96960.63;;;-0.33;94.34
5500;BME280;2772;42.700;23.304;2023-02-10T00:02:41;96955.97;;;-0.31;94.65
5500;BME280;2772;42.700;23.304;2023-02-10T00:05:08;96958.69;;;-0.18;96.85
5500;BME280;2772;42.700;23.304;2023-02-10T00:07:35;96946.31;;;-0.31;95.06
5500;BME280;2772;42.700;23.304;2023-02-10T00:10:02;96956.78;;;-0.31;96.20
5500;BME280;2772;42.700;23.304;2023-02-10T00:12:29;96950.41;;;-0.22;98.27
5500;BME280;2772;42.700;23.304;2023-02-10T00:14:57;96947.56;;;-0.27;99.11
5500;BME280;2772;42.700;23.304;2023-02-10T00:17:24;96947.84;;;-0.09;100.00
5500;BME280;2772;42.700;23.304;2023-02-10T00:19:51;96944.22;;;-0.08;100.00
5500;BME280;2772;42.700;23.304;2023-02-10T00:22:17;96947.03;;;-0.09;100.00
5500;BME280;2772;42.700;23.304;2023-02-10T00:24:44;96947.19;;;-0.17;93.74
5500;BME280;2772;42.700;23.304;2023-02-10T00:27:11;96944.13;;;-0.27;98.34
5500;BME280;2772;42.700;23.304;2023-02-10T00:29:38;96940.56;;;-0.20;100.00
5500;BME280;2772;42.700;23.304;2023-02-10T00:32:06;96947.66;;;-0.07;100.00
5500;BME280;2772;42.700;23.304;2023-02-10T00:34:32;96937.53;;;-0.17;97.03
5500;BME280;2772;42.700;23.304;2023-02-10T00:36:59;96931.44;;;-0.30;97.09
5500;BME280;2772;42.700;23.304;2023-02-10T00:39:26;96930.44;;;-0.29;98.46
5500;BME280;2772;42.700;23.304;2023-02-10T00:41:53;96916.91;;;-0.39;100.00
5500;BME280;2772;42.700;23.304;2023-02-10T00:44:19;96925.28;;;-0.50;100.00
5500;BME280;2772;42.700;23.304;2023-02-10T00:46:46;96923.28;;;-0.48;95.47
5500;BME280;2772;42.700;23.304;2023-02-10T00:49:14;96918.06;;;-0.76;89.15
5500;BME280;2772;42.700;23.304;2023-02-10T00:51:41;96912.75;;;-0.89;86.52
5500;BME280;2772;42.700;23.304;2023-02-10T00:54:08;96922.69;;;-1.05;86.19
5500;BME280;2772;42.700;23.304;2023-02-10T00:56:37;96918.88;;;-1.03;86.75
5500;BME280;2772;42.700;23.304;2023-02-10T00:59:03;96916.22;;;-1.09;85.92
5500;BME280;2772;42.700;23.304;2023-02-10T01:01:30;96919.84;;;-1.31;86.71
5500;BME280;2772;42.700;23.304;2023-02-10T01:03:57;96911.06;;;-1.45;86.88
5500;BME280;2772;42.700;23.304;2023-02-10T01:06:25;96917.94;;;-1.44;87.79
5500;BME280;2772;42.700;23.304;2023-02-10T01:08:52;96918.91;;;-1.45;87.93
5500;BME280;2772;42.700;23.304;2023-02-10T01:11:18;96909.53;;;-1.39;88.05
5500;BME280;2772;42.700;23.304;2023-02-10T01:13:45;96918.00;;;-1.37;88.05
5500;BME280;2772;42.700;23.304;2023-02-10T01:16:14;96909.09;;;-1.43;87.87
5500;BME280;2772;42.700;23.304;2023-02-10T01:18:43;96910.88;;;-1.43;87.96
5500;BME280;2772;42.700;23.304;2023-02-10T01:21:12;96906.47;;;-1.43;88.22
5500;BME280;2772;42.700;23.304;2023-02-10T01:23:41;96911.69;;;-1.43;88.38
5500;BME280;2772;42.700;23.304;2023-02-10T01:26:08;96905.25;;;-1.47;88.35
5500;BME280;2772;42.700;23.304;2023-02-10T01:28:36;96881.56;;;-1.45;88.01
5500;BME280;2772;42.700;23.304;2023-02-10T01:31:05;96903.53;;;-1.54;88.88
5500;BME280;2772;42.700;23.304;2023-02-10T01:33:32;96899.06;;;-1.61;88.60
5500;BME280;2772;42.700;23.304;2023-02-10T01:36:03;96899.44;;;-1.64;88.73
5500;BME280;2772;42.700;23.304;2023-02-10T01:38:30;96898.22;;;-1.68;88.73
5500;BME280;2772;42.700;23.304;2023-02-10T01:40:58;96894.78;;;-1.68;88.79
5500;BME280;2772;42.700;23.304;2023-02-10T01:43:25;96896.00;;;-1.85;88.96
5500;BME280;2772;42.700;23.304;2023-02-10T01:45:52;96896.72;;;-1.77;89.24
5500;BME280;2772;42.700;23.304;2023-02-10T01:48:19;96885.19;;;-2.03;90.10
5500;BME280;2772;42.700;23.304;2023-02-10T01:50:50;96883.38;;;-2.03;91.57
5500;BME280;2772;42.700;23.304;2023-02-10T01:53:18;96884.38;;;-2.04;91.53
5500;BME280;2772;42.700;23.304;2023-02-10T01:55:48;96882.78;;;-2.05;92.37
5500;BME280;2772;42.700;23.304;2023-02-10T01:58:21;96872.50;;;-2.06;92.92
5500;BME280;2772;42.700;23.304;2023-02-10T02:00:50;96873.75;;;-2.02;93.58
5500;BME280;2772;42.700;23.304;2023-02-10T02:03:16;96873.59;;;-2.15;94.61
5500;BME280;2772;42.700;23.304;2023-02-10T02:05:43;96866.78;;;-2.16;95.30
5500;BME280;2772;42.700;23.304;2023-02-10T02:08:13;96863.72;;;-2.20;95.37
5500;BME280;2772;42.700;23.304;2023-02-10T02:10:53;96862.09;;;-2.21;96.10
5500;BME280;2772;42.700;23.304;2023-02-10T02:13:32;96861.94;;;-2.34;96.68
5500;BME280;2772;42.700;23.304;2023-02-10T02:16:08;96859.34;;;-2.34;97.26
5500;BME280;2772;42.700;23.304;2023-02-10T02:18:45;96860.72;;;-2.38;97.98
5500;BME280;2772;42.700;23.304;2023-02-10T02:21:58;96853.81;;;-2.45;98.19
5500;BME280;2772;42.700;23.304;2023-02-10T02:24:43;96853.16;;;-2.62;98.58
5500;BME280;2772;42.700;23.304;2023-02-10T02:27:28;96861.34;;;-2.65;99.36
5500;BME280;2772;42.700;23.304;2023-02-10T02:30:14;96861.03;;;-2.76;99.96
5500;BME280;2772;42.700;23.304;2023-02-10T02:32:48;96858.75;;;-2.65;100.00
5500;BME280;2772;42.700;23.304;2023-02-10T02:35:21;96836.84;;;-2.70;100.00
5500;BME280;2772;42.700;23.304;2023-02-10T02:37:50;96854.53;;;-2.66;100.00
5500;BME280;2772;42.700;23.304;2023-02-10T02:40:18;96856.50;;;-2.68;100.00
5500;BME280;2772;42.700;23.304;2023-02-10T02:42:45;96852.28;;;-2.69;100.00
5500;BME280;2772;42.700;23.304;2023-02-10T02:45:16;96846.91;;;-2.67;99.54
5500;BME280;2772;42.700;23.304;2023-02-10T02:48:00;96856.63;;;-2.90;99.20
5500;BME280;2772;42.700;23.304;2023-02-10T02:50:33;96854.34;;;-2.79;98.97
5500;BME280;2772;42.700;23.304;2023-02-10T02:53:10;96854.16;;;-2.77;97.75
5500;BME280;2772;42.700;23.304;2023-02-10T02:55:49;96856.47;;;-3.26;98.13
5500;BME280;2772;42.700;23.304;2023-02-10T02:58:24;96857.00;;;-3.31;99.33
5500;BME280;2772;42.700;23.304;2023-02-10T03:00:55;96851.84;;;-3.53;99.65
5500;BME280;2772;42.700;23.304;2023-02-10T03:03:27;96851.03;;;-3.76;100.00
5500;BME280;2772;42.700;23.304;2023-02-10T03:05:53;96847.34;;;-3.59;100.00
5500;BME280;2772;42.700;23.304;2023-02-10T03:08:20;96846.22;;;-3.42;100.00
5500;BME280;2772;42.700;23.304;2023-02-10T03:10:47;96851.16;;;-3.47;100.00
5500;BME280;2772;42.700;23.304;2023-02-10T03:13:14;96853.75;;;-3.47;100.00
5500;BME280;2772;42.700;23.304;2023-02-10T03:15:40;96849.69;;;-3.50;100.00
5500;BME280;2772;42.700;23.304;2023-02-10T03:18:07;96852.16;;;-3.71;100.00
5500;BME280;2772;42.700;23.304;2023-02-10T03:20:35;96859.25;;;-3.65;100.00
5500;BME280;2772;42.700;23.304;2023-02-10T03:23:02;96849.97;;;-3.59;100.00
5500;BME280;2772;42.700;23.304;2023-02-10T03:25:28;96857.31;;;-3.63;100.00
5500;BME280;2772;42.700;23.304;2023-02-10T03:27:55;96860.06;;;-3.64;100.00
5500;BME280;2772;42.700;23.304;2023-02-10T03:30:22;96852.94;;;-3.48;100.00
5500;BME280;2772;42.700;23.304;2023-02-10T03:32:49;96855.28;;;-3.38;100.00
5500;BME280;2772;42.700;23.304;2023-02-10T03:35:17;96853.94;;;-3.34;100.00
5500;BME280;2772;42.700;23.304;2023-02-10T03:37:45;96851.69;;;-3.37;100.00
5500;BME280;2772;42.700;23.304;2023-02-10T03:40:12;96853.84;;;-3.41;100.00
5500;BME280;2772;42.700;23.304;2023-02-10T03:42:38;96809.06;;;-3.36;100.00
5500;BME280;2772;42.700;23.304;2023-02-10T03:45:06;96843.53;;;-3.34;100.00
5500;BME280;2772;42.700;23.304;2023-02-10T03:47:33;96835.94;;;-3.58;100.00
5500;BME280;2772;42.700;23.304;2023-02-10T03:49:59;96835.72;;;-3.71;100.00
5500;BME280;2772;42.700;23.304;2023-02-10T03:52:26;96832.94;;;-3.70;100.00
5500;BME280;2772;42.700;23.304;2023-02-10T03:54:54;96826.00;;;-3.55;100.00
5500;BME280;2772;42.700;23.304;2023-02-10T03:57:21;96828.44;;;-3.53;100.00
5500;BME280;2772;42.700;23.304;2023-02-10T03:59:48;96823.66;;;-3.64;100.00
5500;BME280;2772;42.700;23.304;2023-02-10T04:02:14;96827.03;;;-3.64;100.00
5500;BME280;2772;42.700;23.304;2023-02-10T04:04:41;96830.69;;;-3.50;100.00
5500;BME280;2772;42.700;23.304;2023-02-10T04:07:08;96835.66;;;-3.63;100.00
5500;BME280;2772;42.700;23.304;2023-02-10T04:09:34;96821.81;;;-3.64;100.00
5500;BME280;2772;42.700;23.304;2023-02-10T04:12:03;96829.50;;;-3.48;100.00
5500;BME280;2772;42.700;23.304;2023-02-10T04:14:29;96827.03;;;-3.78;100.00
5500;BME280;2772;42.700;23.304;2023-02-10T04:16:56;96827.13;;;-3.72;100.00
5500;BME280;2772;42.700;23.304;2023-02-10T04:19:24;96825.19;;;-3.55;100.00
5500;BME280;2772;42.700;23.304;2023-02-10T04:21:51;96825.81;;;-3.53;100.00
5500;BME280;2772;42.700;23.304;2023-02-10T04:24:17;96839.69;;;-3.75;100.00
5500;BME280;2772;42.700;23.304;2023-02-10T04:26:44;96819.63;;;-3.89;100.00
5500;BME280;2772;42.700;23.304;2023-02-10T04:29:12;96822.09;;;-3.73;100.00
5500;BME280;2772;42.700;23.304;2023-02-10T04:31:39;96822.34;;;-3.83;100.00
5500;BME280;2772;42.700;23.304;2023-02-10T04:34:05;96827.50;;;-3.60;100.00
5500;BME280;2772;42.700;23.304;2023-02-10T04:36:32;96821.50;;;-3.61;100.00
5500;BME280;2772;42.700;23.304;2023-02-10T04:38:59;96831.56;;;-3.80;100.00
5500;BME280;2772;42.700;23.304;2023-02-10T04:41:25;96829.81;;;-3.65;100.00
5500;BME280;2772;42.700;23.304;2023-02-10T04:43:52;96828.34;;;-3.45;100.00
5500;BME280;2772;42.700;23.304;2023-02-10T04:46:20;96832.25;;;-3.64;100.00
5500;BME280;2772;42.700;23.304;2023-02-10T04:48:47;96829.13;;;-3.59;100.00
5500;BME280;2772;42.700;23.304;2023-02-10T04:51:13;96837.38;;;-3.93;100.00
5500;BME280;2772;42.700;23.304;2023-02-10T04:53:41;96838.91;;;-3.84;100.00
5500;BME280;2772;42.700;23.304;2023-02-10T04:56:09;96836.44;;;-4.00;100.00
5500;BME280;2772;42.700;23.304;2023-02-10T04:58:36;96839.06;;;-4.30;100.00
5500;BME280;2772;42.700;23.304;2023-02-10T05:01:03;96840.28;;;-4.41;100.00
5500;BME280;2772;42.700;23.304;2023-02-10T05:03:31;96843.44;;;-4.53;100.00
5500;BME280;2772;42.700;23.304;2023-02-10T05:05:58;96841.47;;;-4.51;100.00
5500;BME280;2772;42.700;23.304;2023-02-10T05:08:25;96846.47;;;-4.80;100.00
5500;BME280;2772;42.700;23.304;2023-02-10T05:10:52;96855.19;;;-4.65;100.00
5500;BME280;2772;42.700;23.304;2023-02-10T05:13:19;96854.69;;;-4.69;100.00
5500;BME280;2772;42.700;23.304;2023-02-10T05:15:47;96854.44;;;-4.43;100.00
5500;BME280;2772;42.700;23.304;2023-02-10T05:18:13;96854.66;;;-4.30;100.00
5500;BME280;2772;42.700;23.304;2023-02-10T05:20:41;96858.25;;;-4.31;100.00
5500;BME280;2772;42.700;23.304;2023-02-10T05:23:08;96868.31;;;-4.28;100.00
5500;BME280;2772;42.700;23.304;2023-02-10T05:25:35;96877.38;;;-4.55;100.00
5500;BME280;2772;42.700;23.304;2023-02-10T05:28:02;96880.25;;;-4.42;100.00
5500;BME280;2772;42.700;23.304;2023-02-10T05:30:28;96877.09;;;-4.29;100.00
5500;BME280;2772;42.700;23.304;2023-02-10T05:32:55;96880.78;;;-4.24;100.00
5500;BME280;2772;42.700;23.304;2023-02-10T05:35:22;96885.09;;;-4.08;100.00
5500;BME280;2772;42.700;23.304;2023-02-10T05:37:50;96877.81;;;-4.13;100.00
5500;BME280;2772;42.700;23.304;2023-02-10T05:40:19;96898.91;;;-3.85;100.00
5500;BME280;2772;42.700;23.304;2023-02-10T05:42:45;96883.50;;;-3.87;100.00
5500;BME280;2772;42.700;23.304;2023-02-10T05:45:12;96889.81;;;-3.81;100.00
5500;BME280;2772;42.700;23.304;2023-02-10T05:47:39;96891.84;;;-3.69;100.00
5500;BME280;2772;42.700;23.304;2023-02-10T05:50:06;96894.88;;;-3.88;100.00
5500;BME280;2772;42.700;23.304;2023-02-10T05:52:33;96906.38;;;-3.82;100.00
5500;BME280;2772;42.700;23.304;2023-02-10T05:55:01;96909.53;;;-3.64;100.00
5500;BME280;2772;42.700;23.304;2023-02-10T05:57:27;96901.38;;;-3.61;100.00
5500;BME280;2772;42.700;23.304;2023-02-10T05:59:54;96895.00;;;-3.59;100.00
5500;BME280;2772;42.700;23.304;2023-02-10T06:02:21;96907.13;;;-3.51;100.00
5500;BME280;2772;42.700;23.304;2023-02-10T06:04:47;96904.69;;;-3.53;100.00
5500;BME280;2772;42.700;23.304;2023-02-10T06:07:14;96900.72;;;-3.41;100.00
5500;BME280;2772;42.700;23.304;2023-02-10T06:09:41;96911.88;;;-3.32;100.00
5500;BME280;2772;42.700;23.304;2023-02-10T06:12:10;96910.91;;;-3.31;100.00
5500;BME280;2772;42.700;23.304;2023-02-10T06:14:37;96911.34;;;-3.28;100.00
5500;BME280;2772;42.700;23.304;2023-02-10T06:17:03;96922.50;;;-3.19;100.00
5500;BME280;2772;42.700;23.304;2023-02-10T06:19:34;96924.88;;;-3.32;100.00
5500;BME280;2772;42.700;23.304;2023-02-10T06:22:00;96926.97;;;-3.28;100.00
5500;BME280;2772;42.700;23.304;2023-02-10T06:24:27;96926.22;;;-3.36;100.00
5500;BME280;2772;42.700;23.304;2023-02-10T06:26:54;96923.63;;;-3.36;100.00
5500;BME280;2772;42.700;23.304;2023-02-10T06:29:22;96927.25;;;-3.22;100.00
5500;BME280;2772;42.700;23.304;2023-02-10T06:31:49;96928.78;;;-3.28;100.00
5500;BME280;2772;42.700;23.304;2023-02-10T06:34:16;96935.00;;;-3.14;100.00
5500;BME280;2772;42.700;23.304;2023-02-10T06:36:43;96938.31;;;-3.06;100.00
5500;BME280;2772;42.700;23.304;2023-02-10T06:39:10;96934.47;;;-3.10;100.00
5500;BME280;2772;42.700;23.304;2023-02-10T06:41:36;96942.84;;;-3.00;100.00
5500;BME280;2772;42.700;23.304;2023-02-10T06:44:03;96937.47;;;-2.98;100.00
5500;BME280;2772;42.700;23.304;2023-02-10T06:46:31;96939.53;;;-2.94;100.00
5500;BME280;2772;42.700;23.304;2023-02-10T06:48:58;96933.31;;;-2.93;99.77
5500;BME280;2772;42.700;23.304;2023-02-10T06:51:27;96943.75;;;-2.93;98.96
5500;BME280;2772;42.700;23.304;2023-02-10T06:53:53;96944.69;;;-2.86;97.35
5500;BME280;2772;42.700;23.304;2023-02-10T06:56:20;96943.28;;;-2.96;96.86
5500;BME280;2772;42.700;23.304;2023-02-10T06:58:47;96957.50;;;-2.99;96.55
5500;BME280;2772;42.700;23.304;2023-02-10T07:01:16;96952.84;;;-2.89;96.04
5500;BME280;2772;42.700;23.304;2023-02-10T07:03:44;96957.34;;;-2.83;95.50
5500;BME280;2772;42.700;23.304;2023-02-10T07:06:11;96960.56;;;-2.81;94.51
5500;BME280;2772;42.700;23.304;2023-02-10T07:08:38;96955.09;;;-2.71;93.76
5500;BME280;2772;42.700;23.304;2023-02-10T07:11:05;96953.38;;;-2.79;93.11
5500;BME280;2772;42.700;23.304;2023-02-10T07:13:31;96945.50;;;-2.71;93.05
5500;BME280;2772;42.700;23.304;2023-02-10T07:15:58;96941.16;;;-2.64;95.87
5500;BME280;2772;42.700;23.304;2023-02-10T07:18:25;96935.34;;;-2.22;100.00
5500;BME280;2772;42.700;23.304;2023-02-10T07:20:54;96938.03;;;-2.30;100.00
5500;BME280;2772;42.700;23.304;2023-02-10T07:23:21;96929.59;;;-2.47;100.00
5500;BME280;2772;42.700;23.304;2023-02-10T07:25:47;96936.25;;;-2.30;96.74
5500;BME280;2772;42.700;23.304;2023-02-10T07:28:14;96944.53;;;-2.41;93.76
5500;BME280;2772;42.700;23.304;2023-02-10T07:30:41;96943.34;;;-2.53;92.68
5500;BME280;2772;42.700;23.304;2023-02-10T07:33:07;96944.53;;;-2.41;92.42
5500;BME280;2772;42.700;23.304;2023-02-10T07:35:35;96942.69;;;-2.40;91.46
5500;BME280;2772;42.700;23.304;2023-02-10T07:38:03;96945.84;;;-2.30;90.29
5500;BME280;2772;42.700;23.304;2023-02-10T07:40:30;96943.78;;;-2.35;89.46
5500;BME280;2772;42.700;23.304;2023-02-10T07:42:56;96945.50;;;-2.56;89.11
5500;BME280;2772;42.700;23.304;2023-02-10T07:45:23;96936.41;;;-2.46;89.32
5500;BME280;2772;42.700;23.304;2023-02-10T07:47:51;96933.91;;;-2.39;88.88
5500;BME280;2772;42.700;23.304;2023-02-10T07:50:18;96936.69;;;-2.41;88.58
5500;BME280;2772;42.700;23.304;2023-02-10T07:52:45;96932.28;;;-2.55;88.42
5500;BME280;2772;42.700;23.304;2023-02-10T07:55:14;96932.56;;;-2.50;89.29
5500;BME280;2772;42.700;23.304;2023-02-10T07:57:41;96944.84;;;-2.29;89.61
5500;BME280;2772;42.700;23.304;2023-02-10T08:00:09;96916.81;;;-2.27;89.11
5500;BME280;2772;42.700;23.304;2023-02-10T08:02:37;96952.22;;;-2.18;88.07
5500;BME280;2772;42.700;23.304;2023-02-10T08:05:04;96952.03;;;-2.02;87.77
5500;BME280;2772;42.700;23.304;2023-02-10T08:07:31;96934.59;;;-2.02;87.60
5500;BME280;2772;42.700;23.304;2023-02-10T08:09:58;96942.13;;;-1.92;90.06
5500;BME280;2772;42.700;23.304;2023-02-10T08:12:26;96928.88;;;-0.17;100.00
5500;BME280;2772;42.700;23.304;2023-02-10T08:14:53;96925.31;;;-0.44;100.00
5500;BME280;2772;42.700;23.304;2023-02-10T08:17:19;96923.72;;;-1.00;100.00
5500;BME280;2772;42.700;23.304;2023-02-10T08:19:46;96939.22;;;-0.98;100.00
5500;BME280;2772;42.700;23.304;2023-02-10T08:22:13;96934.16;;;-1.27;100.00
5500;BME280;2772;42.700;23.304;2023-02-10T08:24:39;96929.19;;;-1.22;92.46
5500;BME280;2772;42.700;23.304;2023-02-10T08:27:06;96933.72;;;-1.31;88.37
5500;BME280;2772;42.700;23.304;2023-02-10T08:29:34;96932.03;;;-1.38;86.75
5500;BME280;2772;42.700;23.304;2023-02-10T08:32:01;96931.59;;;-1.42;86.54
5500;BME280;2772;42.700;23.304;2023-02-10T08:34:28;96930.72;;;-1.28;85.23
5500;BME280;2772;42.700;23.304;2023-02-10T08:36:54;96941.59;;;-1.24;84.41
5500;BME280;2772;42.700;23.304;2023-02-10T08:39:21;96920.38;;;-1.15;83.95
5500;BME280;2772;42.700;23.304;2023-02-10T08:41:48;96931.03;;;-1.16;83.04
5500;BME280;2772;42.700;23.304;2023-02-10T08:44:15;96943.84;;;-1.00;83.29
5500;BME280;2772;42.700;23.304;2023-02-10T08:46:43;96936.97;;;-1.01;82.62
5500;BME280;2772;42.700;23.304;2023-02-10T08:49:10;96928.94;;;-1.00;81.00
5500;BME280;2772;42.700;23.304;2023-02-10T08:51:36;96928.03;;;-0.92;80.53
5500;BME280;2772;42.700;23.304;2023-02-10T08:54:05;96927.78;;;-1.18;81.05
5500;BME280;2772;42.700;23.304;2023-02-10T08:56:32;96928.88;;;-0.85;81.23
5500;BME280;2772;42.700;23.304;2023-02-10T08:58:58;96930.13;;;-0.75;80.47
5500;BME280;2772;42.700;23.304;2023-02-10T09:01:25;96922.91;;;-0.73;79.44
5500;BME280;2772;42.700;23.304;2023-02-10T09:03:54;96917.16;;;-0.62;78.54
5500;BME280;2772;42.700;23.304;2023-02-10T09:06:22;96903.94;;;-0.54;78.44
5500;BME280;2772;42.700;23.304;2023-02-10T09:08:50;96919.38;;;-0.59;77.96
5500;BME280;2772;42.700;23.304;2023-02-10T09:11:18;96916.31;;;-0.69;77.48
5500;BME280;2772;42.700;23.304;2023-02-10T09:13:45;96915.41;;;-0.82;77.47
5500;BME280;2772;42.700;23.304;2023-02-10T09:16:11;96908.19;;;-0.80;77.71
5500;BME280;2772;42.700;23.304;2023-02-10T09:18:38;96901.47;;;-0.62;77.62
5500;BME280;2772;42.700;23.304;2023-02-10T09:21:06;96901.84;;;-0.65;77.49
5500;BME280;2772;42.700;23.304;2023-02-10T09:23:33;96908.13;;;-0.59;77.34
5500;BME280;2772;42.700;23.304;2023-02-10T09:26:00;96904.03;;;-0.41;76.82
5500;BME280;2772;42.700;23.304;2023-02-10T09:28:27;96908.31;;;-0.20;75.90
5500;BME280;2772;42.700;23.304;2023-02-10T09:30:54;96903.56;;;-0.04;75.71
5500;BME280;2772;42.700;23.304;2023-02-10T09:33:21;96899.53;;;-0.06;74.05
5500;BME280;2772;42.700;23.304;2023-02-10T09:35:48;96893.69;;;-0.02;73.29
5500;BME280;2772;42.700;23.304;2023-02-10T09:38:16;96893.06;;;-0.10;73.08
5500;BME280;2772;42.700;23.304;2023-02-10T09:40:50;96879.16;;;-0.11;73.70
5500;BME280;2772;42.700;23.304;2023-02-10T09:43:27;96878.97;;;-0.09;72.85
5500;BME280;2772;42.700;23.304;2023-02-10T09:46:02;96878.38;;;-0.05;72.93
5500;BME280;2772;42.700;23.304;2023-02-10T09:48:39;96880.81;;;0.03;72.55
5500;BME280;2772;42.700;23.304;2023-02-10T09:51:15;96876.38;;;-0.03;72.53
5500;BME280;2772;42.700;23.304;2023-02-10T09:53:49;96871.78;;;0.13;72.08
5500;BME280;2772;42.700;23.304;2023-02-10T09:56:19;96870.78;;;0.07;71.87
5500;BME280;2772;42.700;23.304;2023-02-10T09:58:50;96869.97;;;0.00;71.83
5500;BME280;2772;42.700;23.304;2023-02-10T10:01:21;96876.06;;;0.20;71.81
5500;BME280;2772;42.700;23.304;2023-02-10T10:03:52;96861.56;;;0.31;71.86
5500;BME280;2772;42.700;23.304;2023-02-10T10:06:22;96837.63;;;0.47;70.29
5500;BME280;2772;42.700;23.304;2023-02-10T10:09:13;96856.75;;;0.47;69.48
5500;BME280;2772;42.700;23.304;2023-02-10T10:11:44;96837.59;;;0.60;69.89
5500;BME280;2772;42.700;23.304;2023-02-10T10:14:17;96856.16;;;0.71;68.64
5500;BME280;2772;42.700;23.304;2023-02-10T10:17:02;96841.84;;;0.93;68.31
5500;BME280;2772;42.700;23.304;2023-02-10T10:19:41;96838.41;;;0.99;67.19
5500;BME280;2772;42.700;23.304;2023-02-10T10:22:33;96837.78;;;0.97;66.75
5500;BME280;2772;42.700;23.304;2023-02-10T10:25:16;96835.16;;;1.04;66.24
5500;BME280;2772;42.700;23.304;2023-02-10T10:27:56;96820.88;;;1.00;65.48
5500;BME280;2772;42.700;23.304;2023-02-10T10:30:29;96821.66;;;1.07;65.28
5500;BME280;2772;42.700;23.304;2023-02-10T10:33:03;96821.44;;;1.15;64.95
5500;BME280;2772;42.700;23.304;2023-02-10T10:35:37;96821.78;;;1.25;64.69
5500;BME280;2772;42.700;23.304;2023-02-10T10:38:10;96819.56;;;1.41;64.16
5500;BME280;2772;42.700;23.304;2023-02-10T10:40:40;96799.78;;;1.39;63.67
5500;BME280;2772;42.700;23.304;2023-02-10T10:43:13;96804.22;;;1.32;63.62
5500;BME280;2772;42.700;23.304;2023-02-10T10:45:48;96807.47;;;1.27;63.43
5500;BME280;2772;42.700;23.304;2023-02-10T10:48:18;96803.41;;;1.31;63.75
5500;BME280;2772;42.700;23.304;2023-02-10T10:50:49;96798.91;;;1.51;64.17
5500;BME280;2772;42.700;23.304;2023-02-10T10:53:19;96789.97;;;1.65;63.52
5500;BME280;2772;42.700;23.304;2023-02-10T10:55:52;96797.97;;;1.84;62.37
5500;BME280;2772;42.700;23.304;2023-02-10T10:58:24;96791.41;;;1.99;61.58
5500;BME280;2772;42.700;23.304;2023-02-10T11:00:54;96792.56;;;2.10;60.95
5500;BME280;2772;42.700;23.304;2023-02-10T11:03:21;96784.25;;;2.13;60.79
5500;BME280;2772;42.700;23.304;2023-02-10T11:05:58;96783.84;;;2.16;59.77
5500;BME280;2772;42.700;23.304;2023-02-10T11:08:29;96783.13;;;2.33;59.95
5500;BME280;2772;42.700;23.304;2023-02-10T11:10:59;96787.28;;;2.41;59.84
5500;BME280;2772;42.700;23.304;2023-02-10T11:13:28;96781.19;;;2.47;58.68
5500;BME280;2772;42.700;23.304;2023-02-10T11:16:01;96782.91;;;2.59;58.45
5500;BME280;2772;42.700;23.304;2023-02-10T11:18:30;96783.34;;;2.56;57.20
5500;BME280;2772;42.700;23.304;2023-02-10T11:20:58;96774.50;;;2.51;57.83
5500;BME280;2772;42.700;23.304;2023-02-10T11:23:26;96765.69;;;2.63;57.54
5500;BME280;2772;42.700;23.304;2023-02-10T11:25:59;96753.34;;;2.64;57.19
5500;BME280;2772;42.700;23.304;2023-02-10T11:28:29;96760.16;;;2.71;56.62
5500;BME280;2772;42.700;23.304;2023-02-10T11:30:58;96757.59;;;2.83;56.28
5500;BME280;2772;42.700;23.304;2023-02-10T11:33:29;96757.56;;;2.89;56.24
5500;BME280;2772;42.700;23.304;2023-02-10T11:35:59;96761.72;;;2.97;56.07
5500;BME280;2772;42.700;23.304;2023-02-10T11:38:27;96757.50;;;2.96;55.02
5500;BME280;2772;42.700;23.304;2023-02-10T11:40:56;96748.06;;;2.88;55.59
5500;BME280;2772;42.700;23.304;2023-02-10T11:43:29;96753.16;;;3.01;54.92
5500;BME280;2772;42.700;23.304;2023-02-10T11:45:58;96735.94;;;3.05;55.07
5500;BME280;2772;42.700;23.304;2023-02-10T11:48:27;96735.94;;;3.05;54.38
5500;BME280;2772;42.700;23.304;2023-02-10T11:51:02;96736.28;;;2.91;54.73
5500;BME280;2772;42.700;23.304;2023-02-10T11:53:31;96732.44;;;2.93;55.36
5500;BME280;2772;42.700;23.304;2023-02-10T11:56:02;96747.84;;;2.90;55.06
5500;BME280;2772;42.700;23.304;2023-02-10T11:58:50;96731.91;;;2.85;54.75
5500;BME280;2772;42.700;23.304;2023-02-10T12:01:31;96729.38;;;2.96;54.44
5500;BME280;2772;42.700;23.304;2023-02-10T12:04:01;96713.44;;;2.91;54.41
5500;BME280;2772;42.700;23.304;2023-02-10T12:06:36;96729.50;;;3.01;53.82
5500;BME280;2772;42.700;23.304;2023-02-10T12:09:09;96718.69;;;3.09;54.51
5500;BME280;2772;42.700;23.304;2023-02-10T12:11:46;96716.56;;;3.18;53.60
5500;BME280;2772;42.700;23.304;2023-02-10T12:14:37;96708.66;;;3.00;53.38
5500;BME280;2772;42.700;23.304;2023-02-10T12:17:24;96710.34;;;3.12;53.78
5500;BME280;2772;42.700;23.304;2023-02-10T12:22:55;96693.09;;;3.16;54.08
5500;BME280;2772;42.700;23.304;2023-02-10T12:25:31;96697.97;;;3.31;53.53
5500;BME280;2772;42.700;23.304;2023-02-10T12:28:08;96695.03;;;3.39;53.23
5500;BME280;2772;42.700;23.304;2023-02-10T12:30:47;96697.75;;;3.51;54.38
5500;BME280;2772;42.700;23.304;2023-02-10T12:33:40;96692.25;;;3.52;53.72
5500;BME280;2772;42.700;23.304;2023-02-10T12:36:17;96695.06;;;3.69;53.08
5500;BME280;2772;42.700;23.304;2023-02-10T12:38:56;96690.28;;;3.77;52.85
5500;BME280;2772;42.700;23.304;2023-02-10T12:41:32;96688.34;;;3.84;53.80
5500;BME280;2772;42.700;23.304;2023-02-10T12:44:14;96684.38;;;3.93;53.32
5500;BME280;2772;42.700;23.304;2023-02-10T12:46:57;96690.25;;;4.07;52.60
5500;BME280;2772;42.700;23.304;2023-02-10T12:49:34;96670.53;;;4.09;51.91
5500;BME280;2772;42.700;23.304;2023-02-10T12:52:12;96667.69;;;4.22;51.74
5500;BME280;2772;42.700;23.304;2023-02-10T12:54:45;96666.66;;;4.35;51.69
5500;BME280;2772;42.700;23.304;2023-02-10T12:57:19;96667.47;;;4.35;51.29
5500;BME280;2772;42.700;23.304;2023-02-10T12:59:55;96667.22;;;4.14;51.77
5500;BME280;2772;42.700;23.304;2023-02-10T13:02:31;96667.22;;;4.14;51.65
5500;BME280;2772;42.700;23.304;2023-02-10T13:05:06;96670.44;;;4.16;51.88
5500;BME280;2772;42.700;23.304;2023-02-10T13:07:40;96668.16;;;4.19;51.99
5500;BME280;2772;42.700;23.304;2023-02-10T13:10:18;96679.72;;;4.18;51.39
5500;BME280;2772;42.700;23.304;2023-02-10T13:12:48;96668.72;;;4.21;51.35
5500;BME280;2772;42.700;23.304;2023-02-10T13:15:19;96671.00;;;4.29;51.67
5500;BME280;2772;42.700;23.304;2023-02-10T13:17:49;96665.84;;;4.34;51.39
5500;BME280;2772;42.700;23.304;2023-02-10T13:20:28;96667.34;;;4.42;51.63
5500;BME280;2772;42.700;23.304;2023-02-10T13:23:04;96668.75;;;4.44;51.78
5500;BME280;2772;42.700;23.304;2023-02-10T13:25:41;96675.84;;;4.55;52.11